sensor_id;sensor_type;location;lat;lon;timestamp;P1;durP1;ratioP1;P2;durP2;ratioP2
14007;SDS011;61651;45.508;12.232;2023-06-19T00:00:35;9.82;;;9.02;;
14007;SDS011;61651;45.508;12.232;2023-06-19T00:03:39;10.02;;;9.23;;
14007;SDS011;61651;45.508;12.232;2023-06-19T00:06:41;11.20;;;9.43;;
14007;SDS011;61651;45.508;12.232;2023-06-19T00:09:44;10.30;;;9.32;;
14007;SDS011;61651;45.508;12.232;2023-06-19T00:12:46;10.20;;;9.23;;
14007;SDS011;61651;45.508;12.232;2023-06-19T00:15:48;11.00;;;9.90;;
14007;SDS011;61651;45.508;12.232;2023-06-19T00:18:50;9.80;;;9.00;;
14007;SDS011;61651;45.508;12.232;2023-06-19T00:21:55;10.43;;;9.52;;
14007;SDS011;61651;45.508;12.232;2023-06-19T00:24:59;10.35;;;9.50;;
14007;SDS011;61651;45.508;12.232;2023-06-19T00:28:01;10.18;;;9.23;;
14007;SDS011;61651;45.508;12.232;2023-06-19T00:31:03;9.70;;;8.80;;
14007;SDS011;61651;45.508;12.232;2023-06-19T00:34:07;10.57;;;9.65;;
14007;SDS011;61651;45.508;12.232;2023-06-19T00:37:08;10.13;;;9.25;;
14007;SDS011;61651;45.508;12.232;2023-06-19T00:40:19;10.35;;;9.27;;
14007;SDS011;61651;45.508;12.232;2023-06-19T00:43:27;10.88;;;9.90;;
14007;SDS011;61651;45.508;12.232;2023-06-19T00:46:29;11.45;;;10.35;;
14007;SDS011;61651;45.508;12.232;2023-06-19T00:49:32;10.70;;;9.65;;
14007;SDS011;61651;45.508;12.232;2023-06-19T00:52:34;10.93;;;9.93;;
14007;SDS011;61651;45.508;12.232;2023-06-19T00:55:37;11.77;;;10.70;;
14007;SDS011;61651;45.508;12.232;2023-06-19T00:58:39;11.30;;;10.40;;
14007;SDS011;61651;45.508;12.232;2023-06-19T01:01:41;10.52;;;9.70;;
14007;SDS011;61651;45.508;12.232;2023-06-19T01:04:44;10.80;;;9.52;;
14007;SDS011;61651;45.508;12.232;2023-06-19T01:07:47;10.65;;;9.82;;
14007;SDS011;61651;45.508;12.232;2023-06-19T01:10:56;10.85;;;9.80;;
14007;SDS011;61651;45.508;12.232;2023-06-19T01:14:03;10.98;;;10.00;;
14007;SDS011;61651;45.508;12.232;2023-06-19T01:17:09;11.73;;;10.63;;
14007;SDS011;61651;45.508;12.232;2023-06-19T01:20:12;11.40;;;10.40;;
14007;SDS011;61651;45.508;12.232;2023-06-19T01:23:16;11.43;;;10.32;;
14007;SDS011;61651;45.508;12.232;2023-06-19T01:26:19;11.43;;;10.43;;
14007;SDS011;61651;45.508;12.232;2023-06-19T01:29:27;11.70;;;10.50;;
14007;SDS011;61651;45.508;12.232;2023-06-19T01:32:31;11.55;;;10.55;;
14007;SDS011;61651;45.508;12.232;2023-06-19T01:35:42;11.38;;;10.43;;
14007;SDS011;61651;45.508;12.232;2023-06-19T01:38:46;11.23;;;10.05;;
14007;SDS011;61651;45.508;12.232;2023-06-19T01:41:50;10.77;;;9.88;;
14007;SDS011;61651;45.508;12.232;2023-06-19T01:44:53;11.50;;;10.40;;
14007;SDS011;61651;45.508;12.232;2023-06-19T01:47:56;11.48;;;10.48;;
14007;SDS011;61651;45.508;12.232;2023-06-19T01:50:58;11.05;;;10.05;;
14007;SDS011;61651;45.508;12.232;2023-06-19T01:54:02;11.25;;;10.15;;
14007;SDS011;61651;45.508;12.232;2023-06-19T01:57:06;10.43;;;9.38;;
14007;SDS011;61651;45.508;12.232;2023-06-19T02:00:08;9.85;;;8.85;;
14007;SDS011;61651;45.508;12.232;2023-06-19T02:03:10;10.30;;;9.30;;
14007;SDS011;61651;45.508;12.232;2023-06-19T02:06:12;9.15;;;8.38;;
14007;SDS011;61651;45.508;12.232;2023-06-19T02:09:16;10.27;;;9.38;;
14007;SDS011;61651;45.508;12.232;2023-06-19T02:12:18;10.13;;;9.30;;
14007;SDS011;61651;45.508;12.232;2023-06-19T02:15:20;11.25;;;10.15;;
14007;SDS011;61651;45.508;12.232;2023-06-19T02:18:22;10.45;;;9.52;;
14007;SDS011;61651;45.508;12.232;2023-06-19T02:21:23;13.75;;;9.73;;
14007;SDS011;61651;45.508;12.232;2023-06-19T02:24:27;11.23;;;10.18;;
14007;SDS011;61651;45.508;12.232;2023-06-19T02:27:29;12.35;;;11.20;;
14007;SDS011;61651;45.508;12.232;2023-06-19T02:30:31;11.55;;;10.55;;
14007;SDS011;61651;45.508;12.232;2023-06-19T02:33:33;12.45;;;11.45;;
14007;SDS011;61651;45.508;12.232;2023-06-19T02:36:35;10.55;;;9.73;;
14007;SDS011;61651;45.508;12.232;2023-06-19T02:39:38;13.02;;;11.93;;
14007;SDS011;61651;45.508;12.232;2023-06-19T02:42:40;13.32;;;12.13;;
14007;SDS011;61651;45.508;12.232;2023-06-19T02:45:42;14.82;;;13.52;;
14007;SDS011;61651;45.508;12.232;2023-06-19T02:48:44;14.45;;;13.15;;
14007;SDS011;61651;45.508;12.232;2023-06-19T02:51:46;13.52;;;12.32;;
14007;SDS011;61651;45.508;12.232;2023-06-19T02:54:49;15.10;;;13.73;;
14007;SDS011;61651;45.508;12.232;2023-06-19T02:57:51;14.05;;;12.93;;
14007;SDS011;61651;45.508;12.232;2023-06-19T03:00:53;14.25;;;13.07;;
14007;SDS011;61651;45.508;12.232;2023-06-19T03:03:55;14.38;;;13.00;;
14007;SDS011;61651;45.508;12.232;2023-06-19T03:06:57;14.45;;;13.18;;
14007;SDS011;61651;45.508;12.232;2023-06-19T03:10:01;14.80;;;13.60;;
14007;SDS011;61651;45.508;12.232;2023-06-19T03:13:03;15.43;;;14.00;;
14007;SDS011;61651;45.508;12.232;2023-06-19T03:16:05;14.85;;;13.55;;
14007;SDS011;61651;45.508;12.232;2023-06-19T03:19:07;16.27;;;14.68;;
14007;SDS011;61651;45.508;12.232;2023-06-19T03:22:09;15.85;;;14.55;;
14007;SDS011;61651;45.508;12.232;2023-06-19T03:25:12;17.27;;;15.68;;
14007;SDS011;61651;45.508;12.232;2023-06-19T03:28:14;17.83;;;16.10;;
14007;SDS011;61651;45.508;12.232;2023-06-19T03:31:16;15.98;;;14.45;;
14007;SDS011;61651;45.508;12.232;2023-06-19T03:34:18;14.25;;;13.20;;
14007;SDS011;61651;45.508;12.232;2023-06-19T03:37:20;15.77;;;14.38;;
14007;SDS011;61651;45.508;12.232;2023-06-19T03:40:23;16.42;;;14.95;;
14007;SDS011;61651;45.508;12.232;2023-06-19T03:43:25;15.60;;;14.40;;
14007;SDS011;61651;45.508;12.232;2023-06-19T03:46:27;14.68;;;13.57;;
14007;SDS011;61651;45.508;12.232;2023-06-19T03:49:29;15.85;;;14.55;;
14007;SDS011;61651;45.508;12.232;2023-06-19T03:52:31;15.25;;;13.77;;
14007;SDS011;61651;45.508;12.232;2023-06-19T03:55:35;15.00;;;13.75;;
14007;SDS011;61651;45.508;12.232;2023-06-19T03:58:37;16.05;;;14.43;;
14007;SDS011;61651;45.508;12.232;2023-06-19T04:01:39;15.60;;;14.25;;
14007;SDS011;61651;45.508;12.232;2023-06-19T04:04:41;17.48;;;15.90;;
14007;SDS011;61651;45.508;12.232;2023-06-19T04:07:43;16.73;;;15.23;;
14007;SDS011;61651;45.508;12.232;2023-06-19T04:10:47;18.73;;;16.42;;
14007;SDS011;61651;45.508;12.232;2023-06-19T04:13:49;17.77;;;16.02;;
14007;SDS011;61651;45.508;12.232;2023-06-19T04:16:51;17.58;;;16.17;;
14007;SDS011;61651;45.508;12.232;2023-06-19T04:19:52;19.02;;;17.33;;
14007;SDS011;61651;45.508;12.232;2023-06-19T04:22:54;19.75;;;17.95;;
14007;SDS011;61651;45.508;12.232;2023-06-19T04:25:58;17.90;;;16.42;;
14007;SDS011;61651;45.508;12.232;2023-06-19T05:40:19;17.52;;;15.95;;
14007;SDS011;61651;45.508;12.232;2023-06-19T05:43:21;17.20;;;15.70;;
14007;SDS011;61651;45.508;12.232;2023-06-19T05:46:24;16.48;;;15.18;;
14007;SDS011;61651;45.508;12.232;2023-06-19T05:49:27;16.98;;;15.40;;
14007;SDS011;61651;45.508;12.232;2023-06-19T05:52:29;17.50;;;16.05;;
14007;SDS011;61651;45.508;12.232;2023-06-19T05:55:32;17.13;;;15.68;;
14007;SDS011;61651;45.508;12.232;2023-06-19T05:58:34;17.60;;;15.88;;
14007;SDS011;61651;45.508;12.232;2023-06-19T06:01:36;16.73;;;15.13;;
14007;SDS011;61651;45.508;12.232;2023-06-19T06:04:38;15.73;;;14.38;;
14007;SDS011;61651;45.508;12.232;2023-06-19T06:07:41;16.13;;;14.65;;
14007;SDS011;61651;45.508;12.232;2023-06-19T06:10:44;16.45;;;14.88;;
14007;SDS011;61651;45.508;12.232;2023-06-19T06:13:46;15.23;;;13.93;;
14007;SDS011;61651;45.508;12.232;2023-06-19T06:16:48;14.98;;;13.73;;
14007;SDS011;61651;45.508;12.232;2023-06-19T06:19:50;14.35;;;12.98;;
14007;SDS011;61651;45.508;12.232;2023-06-19T06:22:52;13.75;;;12.50;;
14007;SDS011;61651;45.508;12.232;2023-06-19T06:25:56;12.88;;;11.77;;
14007;SDS011;61651;45.508;12.232;2023-06-19T06:29:02;12.70;;;11.60;;
14007;SDS011;61651;45.508;12.232;2023-06-19T06:32:04;12.50;;;11.40;;
14007;SDS011;61651;45.508;12.232;2023-06-19T06:35:07;12.70;;;11.57;;
14007;SDS011;61651;45.508;12.232;2023-06-19T06:38:09;12.05;;;11.05;;
14007;SDS011;61651;45.508;12.232;2023-06-19T06:41:13;12.05;;;10.85;;
14007;SDS011;61651;45.508;12.232;2023-06-19T06:44:15;10.60;;;9.55;;
14007;SDS011;61651;45.508;12.232;2023-06-19T06:47:17;13.45;;;11.30;;
14007;SDS011;61651;45.508;12.232;2023-06-19T06:50:19;12.30;;;11.20;;
14007;SDS011;61651;45.508;12.232;2023-06-19T06:53:21;12.05;;;11.02;;
14007;SDS011;61651;45.508;12.232;2023-06-19T06:56:24;11.77;;;10.77;;
14007;SDS011;61651;45.508;12.232;2023-06-19T06:59:27;10.05;;;9.15;;
14007;SDS011;61651;45.508;12.232;2023-06-19T07:02:29;10.55;;;9.65;;
14007;SDS011;61651;45.508;12.232;2023-06-19T07:05:31;11.77;;;10.57;;
14007;SDS011;61651;45.508;12.232;2023-06-19T07:08:33;9.80;;;9.00;;
14007;SDS011;61651;45.508;12.232;2023-06-19T07:11:36;8.82;;;8.00;;
14007;SDS011;61651;45.508;12.232;2023-06-19T07:14:38;8.25;;;7.18;;
14007;SDS011;61651;45.508;12.232;2023-06-19T07:17:40;7.95;;;7.25;;
14007;SDS011;61651;45.508;12.232;2023-06-19T07:20:42;8.52;;;7.40;;
14007;SDS011;61651;45.508;12.232;2023-06-19T07:23:44;7.90;;;7.10;;
14007;SDS011;61651;45.508;12.232;2023-06-19T07:26:50;7.85;;;7.05;;
14007;SDS011;61651;45.508;12.232;2023-06-19T07:29:52;7.07;;;6.47;;
14007;SDS011;61651;45.508;12.232;2023-06-19T07:32:53;7.07;;;6.40;;
14007;SDS011;61651;45.508;12.232;2023-06-19T07:35:55;7.07;;;6.47;;
14007;SDS011;61651;45.508;12.232;2023-06-19T07:38:57;7.68;;;6.97;;
14007;SDS011;61651;45.508;12.232;2023-06-19T07:42:01;6.85;;;6.35;;
14007;SDS011;61651;45.508;12.232;2023-06-19T07:45:03;8.38;;;7.40;;
14007;SDS011;61651;45.508;12.232;2023-06-19T07:48:06;8.50;;;7.82;;
14007;SDS011;61651;45.508;12.232;2023-06-19T07:51:08;8.18;;;7.57;;
14007;SDS011;61651;45.508;12.232;2023-06-19T07:54:10;8.30;;;7.30;;
14007;SDS011;61651;45.508;12.232;2023-06-19T07:57:13;7.70;;;7.03;;
14007;SDS011;61651;45.508;12.232;2023-06-19T08:00:16;7.53;;;6.93;;
14007;SDS011;61651;45.508;12.232;2023-06-19T08:03:18;6.68;;;6.13;;
14007;SDS011;61651;45.508;12.232;2023-06-19T08:06:21;6.93;;;6.32;;
14007;SDS011;61651;45.508;12.232;2023-06-19T08:09:23;7.95;;;7.00;;
14007;SDS011;61651;45.508;12.232;2023-06-19T08:12:26;9.27;;;6.78;;
14007;SDS011;61651;45.508;12.232;2023-06-19T08:15:28;7.40;;;5.95;;
14007;SDS011;61651;45.508;12.232;2023-06-19T08:18:30;7.07;;;6.00;;
14007;SDS011;61651;45.508;12.232;2023-06-19T08:21:32;7.53;;;6.32;;
14007;SDS011;61651;45.508;12.232;2023-06-19T08:24:34;5.50;;;5.05;;
14007;SDS011;61651;45.508;12.232;2023-06-19T08:27:40;5.57;;;5.07;;
14007;SDS011;61651;45.508;12.232;2023-06-19T08:30:42;5.88;;;5.22;;
14007;SDS011;61651;45.508;12.232;2023-06-19T08:33:46;7.10;;;6.40;;
14007;SDS011;61651;45.508;12.232;2023-06-19T08:36:49;7.55;;;5.22;;
14007;SDS011;61651;45.508;12.232;2023-06-19T08:39:51;6.75;;;5.80;;
14007;SDS011;61651;45.508;12.232;2023-06-19T08:42:54;5.90;;;5.10;;
14007;SDS011;61651;45.508;12.232;2023-06-19T08:45:59;6.03;;;5.45;;
14007;SDS011;61651;45.508;12.232;2023-06-19T08:49:12;8.07;;;6.88;;
14007;SDS011;61651;45.508;12.232;2023-06-19T08:52:14;7.50;;;5.72;;
14007;SDS011;61651;45.508;12.232;2023-06-19T08:55:16;7.95;;;5.38;;
14007;SDS011;61651;45.508;12.232;2023-06-19T08:58:22;6.25;;;5.50;;
14007;SDS011;61651;45.508;12.232;2023-06-19T09:01:25;23.67;;;7.38;;
14007;SDS011;61651;45.508;12.232;2023-06-19T09:04:27;20.90;;;7.30;;
14007;SDS011;61651;45.508;12.232;2023-06-19T09:07:31;8.77;;;6.40;;
14007;SDS011;61651;45.508;12.232;2023-06-19T09:10:33;14.90;;;5.78;;
14007;SDS011;61651;45.508;12.232;2023-06-19T09:13:36;6.47;;;5.88;;
14007;SDS011;61651;45.508;12.232;2023-06-19T09:16:39;6.03;;;5.43;;
14007;SDS011;61651;45.508;12.232;2023-06-19T09:19:46;7.07;;;5.65;;
14007;SDS011;61651;45.508;12.232;2023-06-19T09:22:49;6.70;;;5.88;;
14007;SDS011;61651;45.508;12.232;2023-06-19T09:25:57;7.43;;;6.50;;
14007;SDS011;61651;45.508;12.232;2023-06-19T09:29:10;6.40;;;5.80;;
14007;SDS011;61651;45.508;12.232;2023-06-19T09:32:16;7.53;;;6.70;;
14007;SDS011;61651;45.508;12.232;2023-06-19T09:35:19;7.30;;;6.63;;
14007;SDS011;61651;45.508;12.232;2023-06-19T09:38:21;7.30;;;5.82;;
14007;SDS011;61651;45.508;12.232;2023-06-19T09:41:27;8.60;;;6.33;;
14007;SDS011;61651;45.508;12.232;2023-06-19T09:44:33;18.65;;;5.80;;
14007;SDS011;61651;45.508;12.232;2023-06-19T09:47:42;7.93;;;5.75;;
14007;SDS011;61651;45.508;12.232;2023-06-19T09:50:45;11.45;;;6.53;;
14007;SDS011;61651;45.508;12.232;2023-06-19T09:53:50;6.65;;;6.05;;
14007;SDS011;61651;45.508;12.232;2023-06-19T09:56:52;7.03;;;6.32;;
14007;SDS011;61651;45.508;12.232;2023-06-19T10:00:00;9.85;;;7.05;;
14007;SDS011;61651;45.508;12.232;2023-06-19T10:03:11;7.35;;;6.40;;
14007;SDS011;61651;45.508;12.232;2023-06-19T10:06:14;6.90;;;6.07;;
14007;SDS011;61651;45.508;12.232;2023-06-19T10:09:17;7.90;;;6.90;;
14007;SDS011;61651;45.508;12.232;2023-06-19T10:12:19;7.15;;;5.90;;
14007;SDS011;61651;45.508;12.232;2023-06-19T10:15:23;6.60;;;6.00;;
14007;SDS011;61651;45.508;12.232;2023-06-19T10:18:26;6.82;;;6.30;;
14007;SDS011;61651;45.508;12.232;2023-06-19T10:21:28;6.50;;;5.90;;
14007;SDS011;61651;45.508;12.232;2023-06-19T10:24:48;7.00;;;6.30;;
14007;SDS011;61651;45.508;12.232;2023-06-19T10:27:51;6.00;;;5.35;;
14007;SDS011;61651;45.508;12.232;2023-06-19T10:30:56;6.07;;;5.57;;
14007;SDS011;61651;45.508;12.232;2023-06-19T10:33:59;8.50;;;5.65;;
14007;SDS011;61651;45.508;12.232;2023-06-19T10:37:04;7.53;;;5.60;;
14007;SDS011;61651;45.508;12.232;2023-06-19T10:40:06;5.80;;;5.30;;
14007;SDS011;61651;45.508;12.232;2023-06-19T10:43:10;6.20;;;5.53;;
14007;SDS011;61651;45.508;12.232;2023-06-19T10:46:14;5.97;;;5.40;;
14007;SDS011;61651;45.508;12.232;2023-06-19T10:49:16;6.65;;;6.05;;
14007;SDS011;61651;45.508;12.232;2023-06-19T10:52:19;7.28;;;5.47;;
14007;SDS011;61651;45.508;12.232;2023-06-19T10:55:21;8.07;;;6.47;;
14007;SDS011;61651;45.508;12.232;2023-06-19T10:58:23;6.47;;;5.85;;
14007;SDS011;61651;45.508;12.232;2023-06-19T11:01:32;8.30;;;6.05;;
14007;SDS011;61651;45.508;12.232;2023-06-19T11:04:37;8.95;;;6.50;;
14007;SDS011;61651;45.508;12.232;2023-06-19T11:07:40;7.38;;;6.60;;
14007;SDS011;61651;45.508;12.232;2023-06-19T11:10:42;6.47;;;5.45;;
14007;SDS011;61651;45.508;12.232;2023-06-19T11:13:44;6.90;;;6.03;;
14007;SDS011;61651;45.508;12.232;2023-06-19T11:16:47;10.38;;;6.97;;
14007;SDS011;61651;45.508;12.232;2023-06-19T11:19:49;17.20;;;7.28;;
14007;SDS011;61651;45.508;12.232;2023-06-19T11:22:55;7.72;;;6.57;;
14007;SDS011;61651;45.508;12.232;2023-06-19T11:26:01;7.95;;;6.43;;
14007;SDS011;61651;45.508;12.232;2023-06-19T11:29:13;7.25;;;6.53;;
14007;SDS011;61651;45.508;12.232;2023-06-19T11:32:18;7.60;;;6.88;;
14007;SDS011;61651;45.508;12.232;2023-06-19T11:35:24;8.35;;;6.38;;
14007;SDS011;61651;45.508;12.232;2023-06-19T11:38:35;7.30;;;6.57;;
14007;SDS011;61651;45.508;12.232;2023-06-19T11:41:38;7.10;;;5.65;;
14007;SDS011;61651;45.508;12.232;2023-06-19T11:44:53;8.85;;;6.63;;
14007;SDS011;61651;45.508;12.232;2023-06-19T11:47:57;7.35;;;6.32;;
14007;SDS011;61651;45.508;12.232;2023-06-19T11:50:59;7.38;;;6.40;;
14007;SDS011;61651;45.508;12.232;2023-06-19T11:54:01;7.10;;;6.40;;
14007;SDS011;61651;45.508;12.232;2023-06-19T11:57:03;7.30;;;6.60;;
14007;SDS011;61651;45.508;12.232;2023-06-19T12:00:12;8.52;;;6.82;;
14007;SDS011;61651;45.508;12.232;2023-06-19T12:03:17;8.05;;;6.82;;
14007;SDS011;61651;45.508;12.232;2023-06-19T12:06:19;10.32;;;7.10;;
14007;SDS011;61651;45.508;12.232;2023-06-19T12:09:22;7.50;;;6.60;;
14007;SDS011;61651;45.508;12.232;2023-06-19T12:12:24;7.57;;;6.88;;
14007;SDS011;61651;45.508;12.232;2023-06-19T12:15:27;7.53;;;6.75;;
14007;SDS011;61651;45.508;12.232;2023-06-19T12:18:30;7.15;;;6.55;;
14007;SDS011;61651;45.508;12.232;2023-06-19T12:21:32;7.00;;;6.35;;
14007;SDS011;61651;45.508;12.232;2023-06-19T12:24:34;7.15;;;6.55;;
14007;SDS011;61651;45.508;12.232;2023-06-19T12:27:37;7.20;;;6.60;;
14007;SDS011;61651;45.508;12.232;2023-06-19T12:30:39;9.93;;;6.95;;
14007;SDS011;61651;45.508;12.232;2023-06-19T12:33:43;6.97;;;6.28;;
14007;SDS011;61651;45.508;12.232;2023-06-19T12:36:45;6.57;;;6.00;;
14007;SDS011;61651;45.508;12.232;2023-06-19T12:39:47;8.40;;;6.22;;
14007;SDS011;61651;45.508;12.232;2023-06-19T12:42:49;7.45;;;6.70;;
14007;SDS011;61651;45.508;12.232;2023-06-19T12:45:51;7.80;;;6.97;;
14007;SDS011;61651;45.508;12.232;2023-06-19T12:48:54;9.80;;;7.68;;
14007;SDS011;61651;45.508;12.232;2023-06-19T12:51:57;8.77;;;6.45;;
14007;SDS011;61651;45.508;12.232;2023-06-19T12:54:59;8.52;;;6.82;;
14007;SDS011;61651;45.508;12.232;2023-06-19T12:58:01;7.35;;;6.65;;
14007;SDS011;61651;45.508;12.232;2023-06-19T13:01:03;7.30;;;6.70;;
14007;SDS011;61651;45.508;12.232;2023-06-19T13:04:07;8.23;;;6.65;;
14007;SDS011;61651;45.508;12.232;2023-06-19T13:07:09;7.20;;;6.50;;
14007;SDS011;61651;45.508;12.232;2023-06-19T13:10:12;7.43;;;6.60;;
14007;SDS011;61651;45.508;12.232;2023-06-19T13:13:14;11.77;;;6.60;;
14007;SDS011;61651;45.508;12.232;2023-06-19T13:16:16;6.57;;;5.97;;
14007;SDS011;61651;45.508;12.232;2023-06-19T13:19:20;8.32;;;6.45;;
14007;SDS011;61651;45.508;12.232;2023-06-19T13:22:22;10.68;;;6.30;;
14007;SDS011;61651;45.508;12.232;2023-06-19T13:25:24;6.22;;;5.70;;
14007;SDS011;61651;45.508;12.232;2023-06-19T13:28:26;6.85;;;6.15;;
14007;SDS011;61651;45.508;12.232;2023-06-19T13:31:28;5.75;;;5.15;;
14007;SDS011;61651;45.508;12.232;2023-06-19T13:34:31;7.03;;;5.82;;
14007;SDS011;61651;45.508;12.232;2023-06-19T13:37:34;8.30;;;6.55;;
14007;SDS011;61651;45.508;12.232;2023-06-19T13:40:36;7.28;;;6.50;;
14007;SDS011;61651;45.508;12.232;2023-06-19T13:43:38;6.78;;;5.90;;
14007;SDS011;61651;45.508;12.232;2023-06-19T13:46:41;7.38;;;6.68;;
14007;SDS011;61651;45.508;12.232;2023-06-19T13:49:45;5.97;;;5.30;;
14007;SDS011;61651;45.508;12.232;2023-06-19T13:52:47;6.75;;;6.10;;
14007;SDS011;61651;45.508;12.232;2023-06-19T13:55:49;7.13;;;6.07;;
14007;SDS011;61651;45.508;12.232;2023-06-19T13:58:51;6.18;;;5.53;;
14007;SDS011;61651;45.508;12.232;2023-06-19T14:01:53;6.72;;;6.03;;
14007;SDS011;61651;45.508;12.232;2023-06-19T14:04:56;6.03;;;5.47;;
14007;SDS011;61651;45.508;12.232;2023-06-19T14:08:00;6.50;;;5.30;;
14007;SDS011;61651;45.508;12.232;2023-06-19T14:11:03;5.95;;;5.35;;
14007;SDS011;61651;45.508;12.232;2023-06-19T14:14:05;6.78;;;5.30;;
14007;SDS011;61651;45.508;12.232;2023-06-19T14:17:07;6.28;;;5.57;;
14007;SDS011;61651;45.508;12.232;2023-06-19T14:20:11;5.63;;;5.10;;
14007;SDS011;61651;45.508;12.232;2023-06-19T14:23:13;5.65;;;5.15;;
14007;SDS011;61651;45.508;12.232;2023-06-19T14:26:15;5.68;;;5.22;;
14007;SDS011;61651;45.508;12.232;2023-06-19T14:29:17;5.50;;;5.00;;
14007;SDS011;61651;45.508;12.232;2023-06-19T14:32:21;5.70;;;5.20;;
14007;SDS011;61651;45.508;12.232;2023-06-19T14:35:24;6.80;;;5.40;;
14007;SDS011;61651;45.508;12.232;2023-06-19T14:38:26;5.78;;;5.20;;
14007;SDS011;61651;45.508;12.232;2023-06-19T14:41:33;7.72;;;5.60;;
14007;SDS011;61651;45.508;12.232;2023-06-19T14:44:35;6.00;;;5.50;;
14007;SDS011;61651;45.508;12.232;2023-06-19T14:47:37;9.93;;;5.93;;
14007;SDS011;61651;45.508;12.232;2023-06-19T14:50:41;7.45;;;6.05;;
14007;SDS011;61651;45.508;12.232;2023-06-19T14:53:43;6.82;;;5.80;;
14007;SDS011;61651;45.508;12.232;2023-06-19T14:56:45;6.57;;;5.85;;
14007;SDS011;61651;45.508;12.232;2023-06-19T14:59:49;9.13;;;6.22;;
14007;SDS011;61651;45.508;12.232;2023-06-19T15:02:51;6.22;;;5.63;;
14007;SDS011;61651;45.508;12.232;2023-06-19T15:05:54;7.07;;;6.18;;
14007;SDS011;61651;45.508;12.232;2023-06-19T15:08:56;6.80;;;5.40;;
14007;SDS011;61651;45.508;12.232;2023-06-19T15:11:58;6.57;;;6.00;;
14007;SDS011;61651;45.508;12.232;2023-06-19T15:15:00;6.93;;;6.30;;
14007;SDS011;61651;45.508;12.232;2023-06-19T15:18:03;6.28;;;5.78;;
14007;SDS011;61651;45.508;12.232;2023-06-19T15:21:08;6.78;;;6.07;;
14007;SDS011;61651;45.508;12.232;2023-06-19T15:24:10;7.28;;;5.88;;
14007;SDS011;61651;45.508;12.232;2023-06-19T15:27:12;8.20;;;5.82;;
14007;SDS011;61651;45.508;12.232;2023-06-19T15:30:14;8.13;;;6.15;;
14007;SDS011;61651;45.508;12.232;2023-06-19T15:33:16;9.05;;;5.53;;
14007;SDS011;61651;45.508;12.232;2023-06-19T15:36:19;5.85;;;5.25;;
14007;SDS011;61651;45.508;12.232;2023-06-19T15:39:21;6.13;;;5.63;;
14007;SDS011;61651;45.508;12.232;2023-06-19T15:42:24;8.05;;;6.13;;
14007;SDS011;61651;45.508;12.232;2023-06-19T15:45:26;6.70;;;6.10;;
14007;SDS011;61651;45.508;12.232;2023-06-19T15:48:28;6.57;;;6.05;;
14007;SDS011;61651;45.508;12.232;2023-06-19T15:51:31;7.45;;;6.70;;
14007;SDS011;61651;45.508;12.232;2023-06-19T15:54:34;7.43;;;6.50;;
14007;SDS011;61651;45.508;12.232;2023-06-19T15:57:35;8.07;;;6.43;;
14007;SDS011;61651;45.508;12.232;2023-06-19T16:00:37;6.88;;;6.18;;
14007;SDS011;61651;45.508;12.232;2023-06-19T16:03:39;6.50;;;5.90;;
14007;SDS011;61651;45.508;12.232;2023-06-19T16:06:43;6.88;;;6.20;;
14007;SDS011;61651;45.508;12.232;2023-06-19T16:09:45;9.57;;;6.53;;
14007;SDS011;61651;45.508;12.232;2023-06-19T16:12:48;6.38;;;5.78;;
14007;SDS011;61651;45.508;12.232;2023-06-19T16:15:50;6.07;;;5.47;;
14007;SDS011;61651;45.508;12.232;2023-06-19T16:18:52;6.78;;;6.13;;
14007;SDS011;61651;45.508;12.232;2023-06-19T16:21:56;6.85;;;6.05;;
14007;SDS011;61651;45.508;12.232;2023-06-19T16:24:58;7.38;;;5.88;;
14007;SDS011;61651;45.508;12.232;2023-06-19T16:28:00;6.57;;;5.90;;
14007;SDS011;61651;45.508;12.232;2023-06-19T16:31:02;8.00;;;6.30;;
14007;SDS011;61651;45.508;12.232;2023-06-19T16:34:04;6.70;;;6.00;;
14007;SDS011;61651;45.508;12.232;2023-06-19T16:37:08;6.85;;;6.35;;
14007;SDS011;61651;45.508;12.232;2023-06-19T16:40:10;7.20;;;6.60;;
14007;SDS011;61651;45.508;12.232;2023-06-19T16:43:12;8.43;;;7.63;;
14007;SDS011;61651;45.508;12.232;2023-06-19T16:46:14;7.80;;;7.15;;
14007;SDS011;61651;45.508;12.232;2023-06-19T16:49:16;8.23;;;7.53;;
14007;SDS011;61651;45.508;12.232;2023-06-19T16:52:20;7.28;;;6.60;;
14007;SDS011;61651;45.508;12.232;2023-06-19T16:55:22;7.95;;;7.20;;
14007;SDS011;61651;45.508;12.232;2023-06-19T16:58:24;8.45;;;7.38;;
14007;SDS011;61651;45.508;12.232;2023-06-19T17:01:26;7.93;;;6.55;;
14007;SDS011;61651;45.508;12.232;2023-06-19T17:04:28;7.80;;;7.00;;
14007;SDS011;61651;45.508;12.232;2023-06-19T17:07:32;8.32;;;6.97;;
14007;SDS011;61651;45.508;12.232;2023-06-19T17:10:34;7.25;;;6.65;;
14007;SDS011;61651;45.508;12.232;2023-06-19T17:13:36;7.45;;;6.72;;
14007;SDS011;61651;45.508;12.232;2023-06-19T17:16:38;7.57;;;6.93;;
14007;SDS011;61651;45.508;12.232;2023-06-19T17:19:40;7.70;;;7.03;;
14007;SDS011;61651;45.508;12.232;2023-06-19T17:22:43;8.07;;;7.03;;
14007;SDS011;61651;45.508;12.232;2023-06-19T17:25:46;9.40;;;7.05;;
14007;SDS011;61651;45.508;12.232;2023-06-19T17:28:48;7.10;;;6.40;;
14007;SDS011;61651;45.508;12.232;2023-06-19T17:31:50;8.10;;;7.30;;
14007;SDS011;61651;45.508;12.232;2023-06-19T17:34:52;8.60;;;7.45;;
14007;SDS011;61651;45.508;12.232;2023-06-19T17:37:55;9.23;;;7.93;;
14007;SDS011;61651;45.508;12.232;2023-06-19T17:40:57;8.23;;;7.35;;
14007;SDS011;61651;45.508;12.232;2023-06-19T17:44:01;8.82;;;8.02;;
14007;SDS011;61651;45.508;12.232;2023-06-19T17:47:04;8.77;;;7.82;;
14007;SDS011;61651;45.508;12.232;2023-06-19T17:50:09;8.55;;;7.85;;
14007;SDS011;61651;45.508;12.232;2023-06-19T17:53:14;8.40;;;7.65;;
14007;SDS011;61651;45.508;12.232;2023-06-19T17:56:16;7.70;;;7.00;;
14007;SDS011;61651;45.508;12.232;2023-06-19T17:59:18;7.38;;;6.78;;
14007;SDS011;61651;45.508;12.232;2023-06-19T18:02:20;8.45;;;7.20;;
14007;SDS011;61651;45.508;12.232;2023-06-19T18:05:22;8.23;;;7.60;;
14007;SDS011;61651;45.508;12.232;2023-06-19T18:08:26;8.27;;;7.47;;
14007;SDS011;61651;45.508;12.232;2023-06-19T18:11:27;9.05;;;7.40;;
14007;SDS011;61651;45.508;12.232;2023-06-19T18:14:30;9.27;;;8.40;;
14007;SDS011;61651;45.508;12.232;2023-06-19T18:17:32;11.48;;;9.50;;
14007;SDS011;61651;45.508;12.232;2023-06-19T18:20:34;11.50;;;10.23;;
14007;SDS011;61651;45.508;12.232;2023-06-19T18:23:37;8.95;;;8.15;;
14007;SDS011;61651;45.508;12.232;2023-06-19T18:26:39;10.48;;;8.48;;
14007;SDS011;61651;45.508;12.232;2023-06-19T18:29:41;8.80;;;8.05;;
14007;SDS011;61651;45.508;12.232;2023-06-19T18:32:43;8.68;;;7.90;;
14007;SDS011;61651;45.508;12.232;2023-06-19T18:35:45;8.88;;;8.18;;
14007;SDS011;61651;45.508;12.232;2023-06-19T18:38:48;10.60;;;8.70;;
14007;SDS011;61651;45.508;12.232;2023-06-19T18:41:51;9.15;;;8.30;;
14007;SDS011;61651;45.508;12.232;2023-06-19T18:44:54;9.63;;;8.60;;
14007;SDS011;61651;45.508;12.232;2023-06-19T18:47:56;9.77;;;8.15;;
14007;SDS011;61651;45.508;12.232;2023-06-19T18:50:58;9.40;;;8.18;;
14007;SDS011;61651;45.508;12.232;2023-06-19T18:54:02;8.70;;;7.80;;
14007;SDS011;61651;45.508;12.232;2023-06-19T18:57:04;9.55;;;8.85;;
14007;SDS011;61651;45.508;12.232;2023-06-19T19:00:07;9.75;;;8.05;;
14007;SDS011;61651;45.508;12.232;2023-06-19T19:03:09;9.15;;;8.25;;
14007;SDS011;61651;45.508;12.232;2023-06-19T19:06:11;10.23;;;8.63;;